Impacts METAR Board
IDs:

KORD - Chicago/O'Hare Intl, IL, US

Updated at: 1400 UTC 19 Apr 2019
Potential Impact None Slight Moderate High
Time 19/02Z 19/03Z 19/04Z 19/05Z 19/06Z 19/07Z 19/08Z 19/09Z 19/10Z 19/11Z 19/12Z 19/13Z 19/14Z
Temp44 44 44 44 44 44 42 42 41 41 41 41 42
Dewpt38 38 38 37 36 35 36 36 35 35 35 34 35
Altim29.78 29.77 29.77 29.77 29.77 29.76 29.75 29.76 29.75 29.77 29.79 29.81 29.81
VIS10 10 10 10 10 10 10 10 10 10 10 10 10
CIG33 32 31 28 29 24 18 20 16 19 18 19 18
CoverOVCOVCOVCOVCOVCOVCOVCOVCOVCOVCOVCOVCOVC
FltCatVFRVFRVFRMVFRMVFRMVFRMVFRMVFRMVFRMVFRMVFRMVFRMVFR
WX--------------------------
WDir35035036020202020101020201020
WSpd11 11 13 12 11 18 18 21 22 22 24 24 25
WGst-- -- -- -- -- 25 32 31 31 31 34 32 37
Raw hourly METARs
KORD 190151Z 35011KT 10SM FEW022 BKN033 OVC047 07/03 A2978 RMK AO2 SLP085 T00670033
KORD 190251Z 35011KT 10SM SCT024 BKN032 OVC042 07/03 A2977 RMK AO2 SLP082 T00670033 50006
KORD 190351Z 36013KT 10SM SCT021 OVC031 07/03 A2977 RMK AO2 SLP081 T00670033
KORD 190451Z 02012KT 10SM FEW019 BKN028 OVC044 07/03 A2977 RMK AO2 SLP083 T00670028
KORD 190551Z 02011KT 10SM BKN029 OVC037 07/02 A2977 RMK AO2 SLP083 T00670022 10072 20067 401830067 53001
KORD 190651Z 02018G25KT 10SM OVC024 07/02 A2976 RMK AO2 PK WND 03029/0623 SLP080 T00670017
KORD 190751Z 02018G32KT 10SM OVC018 06/02 A2975 RMK AO2 PK WND 02034/0729 SLP077 T00560022
KORD 190851Z 01021G31KT 10SM BKN020 OVC026 06/02 A2976 RMK AO2 PK WND 02034/0818 SLP079 T00560022 55005
KORD 190951Z 01022G31KT 10SM OVC016 05/02 A2975 RMK AO2 PK WND 36035/0914 SLP076 T00500017
KORD 191051Z 02022G31KT 10SM OVC019 05/02 A2977 RMK AO2 PK WND 02035/1010 SLP084 T00500017
KORD 191151Z 02024G34KT 10SM OVC018 05/02 A2979 RMK AO2 PK WND 02034/1147 SLP091 70028 T00500017 10067 20050 53011
KORD 191251Z 01024G32KT 10SM OVC019 05/01 A2981 RMK AO2 PK WND 02035/1152 SLP097 T00500011
KORD 191351Z 02025G37KT 10SM BKN018 BKN025 OVC150 06/02 A2981 RMK AO2 PK WND 36037/1350 SLP098 T00560017



Page loaded:  14:15 UTC  |   07:15 AM Pacific  |   08:15 AM Mountain  |   09:15 AM Central  |   10:15 AM Eastern

 

ADVISORIES

FORECASTS

FORECASTS

OBSERVATIONS

USER TOOLS

ABOUT US